Time;durP1;ratioP1;P1;durP2;ratioP2;P2;SDS_P1;SDS_P2;PMS_P1;PMS_P2;Temp;Humidity;BMP_temperature;BMP_pressure;BME280_temperature;BME280_humidity;BME280_pressure;Samples;Min_cycle;Max_cycle;Signal;HPM_P1;HPM_P2
2022/10/11 00:00:18;;;;;;;19.70;11.87;;;15.10;99.90;;;;;;5023225;28;20233;-73
2022/10/11 00:02:43;;;;;;;13.30;9.70;;;15.10;99.90;;;;;;5001406;28;20713;-73
2022/10/11 00:05:09;;;;;;;18.60;10.17;;;15.00;99.90;;;;;;5019846;28;20287;-71
2022/10/11 00:07:38;;;;;;;15.10;10.73;;;15.00;99.90;;;;;;5014475;28;20209;-73
2022/10/11 00:10:05;;;;;;;21.30;11.17;;;15.00;99.90;;;;;;4985748;28;20269;-72
2022/10/11 00:12:31;;;;;;;14.80;9.00;;;15.00;99.90;;;;;;5006818;28;20547;-73
2022/10/11 00:14:57;;;;;;;14.37;10.30;;;14.90;99.90;;;;;;5007830;28;20980;-72
2022/10/11 00:17:23;;;;;;;16.60;10.90;;;14.90;99.90;;;;;;4990687;28;20453;-70
2022/10/11 00:19:48;;;;;;;14.90;10.23;;;14.90;99.90;;;;;;5024751;28;20236;-72
2022/10/11 00:22:14;;;;;;;22.57;11.27;;;14.90;99.90;;;;;;5015889;28;20225;-72
2022/10/11 00:24:40;;;;;;;16.00;10.17;;;14.90;99.90;;;;;;5004738;28;20308;-72
2022/10/11 00:27:06;;;;;;;18.43;10.97;;;14.90;99.90;;;;;;5006921;28;20215;-72
2022/10/11 00:29:31;;;;;;;17.13;11.00;;;14.80;99.90;;;;;;4995934;28;20740;-72
2022/10/11 00:31:57;;;;;;;14.67;10.83;;;14.80;99.90;;;;;;4987364;28;20224;-72
2022/10/11 00:34:23;;;;;;;16.47;11.37;;;14.80;99.90;;;;;;4990885;28;20228;-71
2022/10/11 00:36:48;;;;;;;20.07;12.67;;;14.80;99.90;;;;;;5014766;28;20224;-73
2022/10/11 00:39:14;;;;;;;14.57;11.40;;;14.80;99.90;;;;;;5009798;28;20224;-72
2022/10/11 00:41:40;;;;;;;15.77;10.20;;;14.80;99.90;;;;;;4991126;28;20570;-71
2022/10/11 00:44:18;;;;;;;12.33;9.20;;;14.80;99.90;;;;;;4985124;28;20233;-73
2022/10/11 00:46:53;;;;;;;17.77;10.20;;;14.80;99.90;;;;;;4997101;28;20464;-73
2022/10/11 00:49:35;;;;;;;14.13;10.73;;;14.80;99.90;;;;;;4997987;28;21018;-73
2022/10/11 00:52:06;;;;;;;11.53;9.57;;;14.70;99.90;;;;;;4988842;28;20463;-73
2022/10/11 00:54:38;;;;;;;14.93;9.93;;;14.60;99.90;;;;;;5013877;28;20474;-74
2022/10/11 00:57:08;;;;;;;10.70;8.07;;;14.60;99.90;;;;;;5000498;28;20570;-72
2022/10/11 00:59:40;;;;;;;11.70;8.73;;;14.60;99.90;;;;;;4995682;28;20526;-72
2022/10/11 01:02:07;;;;;;;12.47;8.50;;;14.60;99.90;;;;;;4995075;28;20457;-72
2022/10/11 01:04:33;;;;;;;11.90;7.90;;;14.60;99.90;;;;;;5011418;28;20483;-72
2022/10/11 01:07:00;;;;;;;10.07;7.27;;;14.50;99.90;;;;;;5012832;28;20459;-72
2022/10/11 01:09:25;;;;;;;12.30;8.60;;;14.50;99.90;;;;;;5006493;28;20555;-72
2022/10/11 01:11:55;;;;;;;10.73;7.57;;;14.60;99.90;;;;;;5003726;28;20564;-72
2022/10/11 01:14:50;;;;;;;16.20;7.93;;;14.50;99.90;;;;;;5006094;28;20229;-72
2022/10/11 01:17:34;;;;;;;9.37;6.93;;;14.50;99.90;;;;;;4986797;28;20488;-73
2022/10/11 01:20:18;;;;;;;15.93;7.23;;;14.50;99.90;;;;;;4993486;28;20479;-71
2022/10/11 01:22:55;;;;;;;8.17;6.17;;;14.40;99.90;;;;;;4984595;28;20469;-72
2022/10/11 01:26:06;;;;;;;8.27;6.97;;;14.40;99.90;;;;;;5023476;28;20515;-72
2022/10/11 01:29:10;;;;;;;5.80;5.20;;;14.40;99.90;;;;;;4989760;28;20891;-70
2022/10/11 01:31:57;;;;;;;7.40;5.57;;;14.30;99.90;;;;;;5011671;28;20468;-70
2022/10/11 01:34:30;;;;;;;5.77;5.17;;;14.30;99.90;;;;;;5012436;28;20459;-73
2022/10/11 01:37:02;;;;;;;6.90;5.40;;;14.30;99.90;;;;;;5006963;28;20506;-71
2022/10/11 01:39:30;;;;;;;5.30;4.43;;;14.30;99.90;;;;;;5010577;28;20530;-71
2022/10/11 01:42:01;;;;;;;6.47;4.87;;;14.30;99.90;;;;;;5023509;28;20484;-70
2022/10/11 01:44:29;;;;;;;6.57;4.60;;;14.30;99.90;;;;;;5026291;28;20464;-71
2022/10/11 01:46:55;;;;;;;14.60;4.83;;;14.20;99.90;;;;;;4985541;28;20458;-73
2022/10/11 01:49:20;;;;;;;8.60;5.47;;;14.20;99.90;;;;;;5009856;28;20451;-70
2022/10/11 01:51:52;;;;;;;6.10;4.70;;;14.10;99.90;;;;;;5024276;28;20224;-72
2022/10/11 01:54:24;;;;;;;5.53;4.60;;;14.00;99.90;;;;;;5026266;28;20225;-72
2022/10/11 01:57:28;;;;;;;5.73;4.30;;;14.00;99.90;;;;;;5011558;28;20448;-72
2022/10/11 02:00:09;;;;;;;7.27;4.37;;;14.00;99.90;;;;;;5001789;28;20547;-71
2022/10/11 02:03:18;;;;;;;10.33;5.13;;;14.00;99.90;;;;;;5020746;28;20530;-71
2022/10/11 02:05:49;;;;;;;4.90;4.10;;;14.00;99.90;;;;;;5018740;28;20850;-72
2022/10/11 02:08:14;;;;;;;7.03;4.70;;;14.00;99.90;;;;;;5008337;28;20465;-70
2022/10/11 02:10:49;;;;;;;5.80;4.20;;;14.00;99.90;;;;;;5007206;28;20542;-71
2022/10/11 02:13:45;;;;;;;4.77;3.33;;;14.00;99.90;;;;;;5009655;28;20224;-71
2022/10/11 02:16:15;;;;;;;6.13;4.30;;;14.00;99.90;;;;;;5023301;28;20485;-73
2022/10/11 02:18:46;;;;;;;5.43;3.90;;;14.00;99.90;;;;;;4992761;28;20476;-70
2022/10/11 02:21:16;;;;;;;6.00;3.37;;;14.00;99.90;;;;;;4973383;28;20518;-72
2022/10/11 02:23:53;;;;;;;7.90;3.83;;;14.00;99.90;;;;;;5028077;28;20447;-71
2022/10/11 02:26:20;;;;;;;9.33;3.37;;;14.00;99.90;;;;;;5006530;28;20448;-70
2022/10/11 02:28:48;;;;;;;4.87;3.80;;;14.00;99.90;;;;;;5018370;28;20997;-71
2022/10/11 02:31:16;;;;;;;5.13;3.70;;;14.00;99.90;;;;;;4985683;28;20889;-71
2022/10/11 02:33:49;;;;;;;5.23;3.73;;;13.90;99.90;;;;;;4991849;28;20546;-71
2022/10/11 02:36:39;;;;;;;4.73;4.10;;;13.90;99.90;;;;;;5010969;28;20968;-71
2022/10/11 02:39:12;;;;;;;3.93;3.50;;;13.80;99.90;;;;;;5003608;28;20472;-71
2022/10/11 02:41:39;;;;;;;7.37;3.70;;;13.80;99.90;;;;;;5010798;28;20456;-71
2022/10/11 02:44:37;;;;;;;6.90;3.50;;;13.90;99.90;;;;;;5002098;28;20478;-71
2022/10/11 02:47:04;;;;;;;5.30;3.80;;;13.90;99.90;;;;;;5007843;28;20875;-71
2022/10/11 02:49:30;;;;;;;7.03;3.67;;;13.90;99.90;;;;;;4994163;28;20483;-72
2022/10/11 02:51:57;;;;;;;5.10;3.70;;;13.80;99.90;;;;;;5023086;28;20475;-70
2022/10/11 02:54:24;;;;;;;5.90;3.80;;;13.70;99.90;;;;;;4992703;28;20968;-71
2022/10/11 02:56:50;;;;;;;8.97;4.13;;;13.70;99.90;;;;;;5011672;28;20475;-71
2022/10/11 02:59:15;;;;;;;4.70;3.37;;;13.70;99.90;;;;;;4993555;28;20465;-71
2022/10/11 03:01:42;;;;;;;4.67;3.70;;;13.80;99.90;;;;;;5022838;28;20268;-72
2022/10/11 03:04:08;;;;;;;4.70;3.20;;;13.70;99.90;;;;;;5007104;28;20248;-71
2022/10/11 03:06:34;;;;;;;8.50;3.53;;;13.70;99.90;;;;;;5023834;28;20499;-72
2022/10/11 03:08:59;;;;;;;3.40;3.10;;;13.70;99.90;;;;;;5006950;28;20221;-70
2022/10/11 03:11:25;;;;;;;8.07;3.50;;;13.50;99.90;;;;;;4990076;28;20225;-71
2022/10/11 03:13:54;;;;;;;4.43;3.73;;;13.50;99.90;;;;;;5008347;28;20246;-72
2022/10/11 03:16:20;;;;;;;5.73;3.37;;;13.40;99.90;;;;;;5006849;28;20227;-71
2022/10/11 03:18:45;;;;;;;5.93;3.43;;;13.50;99.90;;;;;;4999852;28;20465;-70
2022/10/11 03:21:11;;;;;;;3.30;2.97;;;13.50;99.90;;;;;;5005563;28;20217;-72
2022/10/11 03:23:37;;;;;;;4.93;2.70;;;13.50;99.90;;;;;;5016938;28;20286;-71
2022/10/11 03:26:03;;;;;;;4.00;3.27;;;13.30;99.90;;;;;;5004265;28;20617;-70
2022/10/11 03:28:28;;;;;;;3.27;2.80;;;13.20;99.90;;;;;;4971868;28;1130447;-70
2022/10/11 03:30:54;;;;;;;2.83;2.37;;;13.20;99.90;;;;;;5000406;28;20221;-71
2022/10/11 03:33:20;;;;;;;2.93;1.90;;;13.10;99.90;;;;;;4999302;28;20616;-70
2022/10/11 03:35:47;;;;;;;2.23;2.03;;;13.00;99.90;;;;;;5000540;28;20218;-70
2022/10/11 03:38:14;;;;;;;2.70;1.83;;;12.90;99.90;;;;;;5022400;28;20709;-72
2022/10/11 03:40:41;;;;;;;1.97;1.77;;;12.70;99.90;;;;;;5012615;28;20461;-71
2022/10/11 03:43:07;;;;;;;4.13;1.80;;;12.70;99.90;;;;;;5023194;28;20487;-70
2022/10/11 03:45:33;;;;;;;3.20;1.93;;;12.60;99.90;;;;;;5004983;28;20537;-71
2022/10/11 03:47:59;;;;;;;4.17;1.80;;;12.60;99.90;;;;;;4997133;28;20236;-71
2022/10/11 03:50:25;;;;;;;2.33;2.07;;;12.40;99.90;;;;;;4989382;28;20482;-71
2022/10/11 03:52:50;;;;;;;3.40;1.90;;;12.40;99.90;;;;;;5013476;28;20213;-72
2022/10/11 03:55:16;;;;;;;14.33;2.03;;;12.30;99.90;;;;;;5015249;28;20225;-72
2022/10/11 03:57:42;;;;;;;5.47;1.43;;;12.30;99.90;;;;;;5013461;28;20229;-72
2022/10/11 04:00:08;;;;;;;2.53;2.17;;;12.30;99.90;;;;;;4990833;28;20225;-73
2022/10/11 04:02:34;;;;;;;2.50;1.50;;;12.30;99.90;;;;;;4990687;28;20264;-72
2022/10/11 04:05:00;;;;;;;3.17;1.80;;;12.30;99.90;;;;;;5000957;28;20938;-72
2022/10/11 04:07:26;;;;;;;7.53;1.63;;;12.20;99.90;;;;;;5015467;28;20220;-72
2022/10/11 04:09:52;;;;;;;2.00;1.37;;;12.20;99.90;;;;;;5003487;28;20472;-73
2022/10/11 04:12:18;;;;;;;4.17;1.60;;;12.00;99.90;;;;;;5008260;28;20460;-73
2022/10/11 04:14:44;;;;;;;3.03;1.53;;;12.00;99.90;;;;;;4996702;28;20228;-74
2022/10/11 04:17:09;;;;;;;1.63;1.40;;;11.90;99.90;;;;;;5008378;28;20213;-72
2022/10/11 04:19:38;;;;;;;3.03;1.57;;;12.00;99.90;;;;;;5013748;28;20225;-71
2022/10/11 04:22:04;;;;;;;3.47;1.50;;;12.00;99.90;;;;;;4995353;28;20308;-72
2022/10/11 04:24:30;;;;;;;3.70;1.60;;;12.00;99.90;;;;;;5000594;28;20465;-72
2022/10/11 04:26:56;;;;;;;5.53;1.50;;;11.90;99.90;;;;;;5009145;28;20944;-73
2022/10/11 04:29:23;;;;;;;7.57;1.80;;;11.90;99.90;;;;;;5007573;28;20224;-72
2022/10/11 04:31:49;;;;;;;5.40;1.73;;;11.90;99.90;;;;;;5005059;28;20958;-72
2022/10/11 04:34:15;;;;;;;4.87;1.70;;;11.80;99.90;;;;;;5014721;28;20836;-72
2022/10/11 04:36:40;;;;;;;2.37;1.40;;;11.80;99.90;;;;;;4991930;28;20448;-72
2022/10/11 04:39:07;;;;;;;4.00;1.40;;;11.80;99.90;;;;;;4998610;28;20565;-72
2022/10/11 04:41:33;;;;;;;2.10;1.40;;;11.70;99.90;;;;;;4998744;28;20222;-72
2022/10/11 04:43:59;;;;;;;6.03;1.40;;;11.70;99.90;;;;;;4992521;28;20488;-72
2022/10/11 04:46:25;;;;;;;5.23;1.20;;;11.70;99.90;;;;;;5004498;28;20535;-72
2022/10/11 04:48:51;;;;;;;4.40;1.37;;;11.70;99.90;;;;;;5004189;28;21019;-72
2022/10/11 04:51:17;;;;;;;2.83;1.30;;;11.60;99.90;;;;;;5006331;28;20217;-72
2022/10/11 04:53:43;;;;;;;6.43;1.87;;;11.60;99.90;;;;;;5000472;28;20239;-72
2022/10/11 04:56:10;;;;;;;2.07;1.80;;;11.50;99.90;;;;;;4999249;28;20476;-72
2022/10/11 04:58:39;;;;;;;6.20;1.10;;;11.60;99.90;;;;;;4994981;28;20222;-72
2022/10/11 05:01:05;;;;;;;3.20;1.50;;;11.60;99.90;;;;;;4995591;28;20475;-72
2022/10/11 05:03:31;;;;;;;2.23;1.37;;;11.50;99.90;;;;;;4996173;28;20551;-72
2022/10/11 05:05:56;;;;;;;5.50;1.63;;;11.50;99.90;;;;;;5018242;28;20562;-73
2022/10/11 05:08:23;;;;;;;2.70;1.67;;;11.50;99.90;;;;;;5007081;28;20275;-72
2022/10/11 05:11:06;;;;;;;7.70;1.60;;;11.50;99.90;;;;;;4997693;28;20213;-72
2022/10/11 05:13:33;;;;;;;4.23;1.50;;;11.40;99.90;;;;;;4992403;28;20452;-74
2022/10/11 05:15:59;;;;;;;2.87;1.33;;;11.30;99.90;;;;;;5005957;28;20459;-72
2022/10/11 05:18:25;;;;;;;4.50;1.40;;;11.30;99.90;;;;;;4998005;28;20488;-73
2022/10/11 05:21:07;;;;;;;1.40;1.30;;;11.30;99.90;;;;;;4996373;28;20823;-74
2022/10/11 05:23:35;;;;;;;8.97;2.00;;;11.20;99.90;;;;;;5007441;28;20558;-74
2022/10/11 05:26:01;;;;;;;1.93;1.57;;;11.30;99.90;;;;;;5030188;28;20542;-71
2022/10/11 05:28:27;;;;;;;6.60;1.40;;;11.30;99.90;;;;;;4992259;28;20534;-72
2022/10/11 05:30:53;;;;;;;5.10;1.70;;;11.40;99.90;;;;;;4967218;28;20467;-72
2022/10/11 05:33:19;;;;;;;2.93;1.47;;;11.40;99.90;;;;;;5002191;28;20458;-72
2022/10/11 05:35:45;;;;;;;4.07;1.57;;;11.50;99.90;;;;;;4993896;28;20520;-74
2022/10/11 05:38:10;;;;;;;5.30;1.30;;;11.50;99.90;;;;;;5005795;28;20455;-73
2022/10/11 05:40:37;;;;;;;2.57;1.30;;;11.50;99.90;;;;;;4999079;28;20217;-72
2022/10/11 05:43:03;;;;;;;2.37;1.23;;;11.40;99.90;;;;;;5012452;28;20271;-73
2022/10/11 05:45:29;;;;;;;3.60;1.20;;;11.30;99.90;;;;;;5004489;28;20468;-73
2022/10/11 05:47:55;;;;;;;3.03;1.33;;;11.20;99.90;;;;;;5018065;28;20463;-73
2022/10/11 05:50:20;;;;;;;2.83;1.43;;;11.10;99.90;;;;;;5008201;28;20455;-73
2022/10/11 05:52:46;;;;;;;1.03;0.90;;;11.10;99.90;;;;;;4987405;28;20717;-73
2022/10/11 05:55:12;;;;;;;2.83;1.33;;;11.10;99.90;;;;;;5020501;28;20220;-74
2022/10/11 05:57:37;;;;;;;4.93;1.70;;;11.10;99.90;;;;;;5018649;28;20225;-72
2022/10/11 06:00:04;;;;;;;3.00;1.30;;;11.10;99.90;;;;;;5004961;28;20257;-71
2022/10/11 06:02:37;;;;;;;6.60;1.90;;;11.10;99.90;;;;;;5017600;28;20212;-73
2022/10/11 06:05:03;;;;;;;5.20;2.70;;;11.10;99.90;;;;;;4999529;28;20518;-71
2022/10/11 06:07:29;;;;;;;2.80;1.80;;;11.20;99.90;;;;;;4994777;28;20225;-71
2022/10/11 06:09:55;;;;;;;1.37;1.27;;;11.10;99.90;;;;;;5010559;28;20217;-73
2022/10/11 06:12:21;;;;;;;3.57;1.20;;;11.10;99.90;;;;;;5006772;28;20444;-74
2022/10/11 06:14:46;;;;;;;2.13;1.40;;;11.10;99.90;;;;;;5000114;28;20271;-74
2022/10/11 06:17:12;;;;;;;2.97;1.10;;;11.10;99.90;;;;;;5011010;28;20242;-73
2022/10/11 06:19:38;;;;;;;3.80;1.30;;;11.20;99.90;;;;;;5006531;28;20233;-72
2022/10/11 06:22:03;;;;;;;3.67;1.23;;;11.10;99.90;;;;;;4992216;28;20228;-75
2022/10/11 06:24:29;;;;;;;8.57;1.10;;;11.10;99.90;;;;;;5018110;28;20323;-73
2022/10/11 06:26:55;;;;;;;4.07;1.17;;;11.10;99.90;;;;;;5008895;28;20216;-73
2022/10/11 06:29:21;;;;;;;2.13;1.10;;;11.10;99.90;;;;;;5016352;28;20635;-72
2022/10/11 06:31:47;;;;;;;4.67;0.97;;;11.10;99.90;;;;;;5009818;28;20225;-73
2022/10/11 06:34:14;;;;;;;9.03;1.97;;;11.10;99.90;;;;;;5009373;28;20449;-74
2022/10/11 06:36:39;;;;;;;1.10;1.00;;;10.90;99.90;;;;;;4996205;28;20542;-74
2022/10/11 06:39:05;;;;;;;6.00;1.20;;;11.00;99.90;;;;;;4999548;28;21008;-73
2022/10/11 06:41:31;;;;;;;1.73;1.20;;;11.00;99.90;;;;;;4999001;28;20656;-73
2022/10/11 06:43:56;;;;;;;2.00;1.50;;;11.00;99.90;;;;;;5018973;28;20246;-71
2022/10/11 06:46:26;;;;;;;4.60;1.57;;;11.00;99.90;;;;;;5008793;28;20225;-72
2022/10/11 06:48:52;;;;;;;2.40;1.20;;;11.00;99.90;;;;;;5026013;28;20258;-74
2022/10/11 06:51:20;;;;;;;3.73;1.20;;;11.00;99.90;;;;;;5018770;28;20947;-72
2022/10/11 06:53:55;;;;;;;2.20;1.17;;;11.00;99.90;;;;;;5011486;28;20453;-73
2022/10/11 06:56:21;;;;;;;7.23;1.63;;;10.90;99.90;;;;;;5001074;28;20836;-73
2022/10/11 06:58:47;;;;;;;3.83;1.07;;;10.90;99.90;;;;;;4997345;28;20472;-71
2022/10/11 07:01:19;;;;;;;3.77;3.43;;;10.80;99.90;;;;;;4998399;28;20447;-72
2022/10/11 07:03:45;;;;;;;2.03;1.20;;;10.90;99.90;;;;;;5017600;28;20213;-74
2022/10/11 07:06:13;;;;;;;4.37;1.03;;;10.80;99.90;;;;;;5005293;28;20453;-73
2022/10/11 07:08:39;;;;;;;2.20;1.53;;;10.90;99.90;;;;;;5029092;28;20451;-71
2022/10/11 07:11:16;;;;;;;3.50;1.00;;;10.90;99.90;;;;;;5001004;28;20502;-71
2022/10/11 07:13:47;;;;;;;3.30;1.10;;;10.90;99.90;;;;;;5012611;28;20455;-74
2022/10/11 07:16:13;;;;;;;1.17;0.97;;;11.00;99.90;;;;;;5016664;28;20463;-73
2022/10/11 07:18:39;;;;;;;5.73;1.47;;;11.10;99.90;;;;;;5017789;28;20483;-74
2022/10/11 07:21:11;;;;;;;3.83;1.67;;;11.10;99.90;;;;;;5005578;28;20212;-72
2022/10/11 07:23:40;;;;;;;1.27;1.17;;;11.10;99.90;;;;;;5018756;28;20452;-72
2022/10/11 07:26:07;;;;;;;2.83;1.90;;;11.20;99.90;;;;;;4999877;28;20468;-72
2022/10/11 07:28:34;;;;;;;5.40;2.20;;;11.20;99.90;;;;;;5017236;28;20872;-74
2022/10/11 07:31:08;;;;;;;2.00;1.13;;;11.20;99.90;;;;;;5002667;28;20578;-72
2022/10/11 07:33:34;;;;;;;6.23;1.87;;;11.20;99.90;;;;;;5007283;28;20514;-73
2022/10/11 07:35:59;;;;;;;11.63;1.33;;;11.30;99.90;;;;;;5005272;28;20963;-73
2022/10/11 07:38:26;;;;;;;4.67;1.40;;;11.30;99.90;;;;;;5001212;28;20242;-73
2022/10/11 07:40:51;;;;;;;2.13;1.30;;;11.30;99.90;;;;;;5017443;28;20228;-73
2022/10/11 07:43:18;;;;;;;10.13;1.70;;;11.40;99.90;;;;;;5006897;28;20451;-72
2022/10/11 07:45:47;;;;;;;3.70;1.70;;;11.40;99.90;;;;;;4998888;28;20220;-71
2022/10/11 07:48:13;;;;;;;4.97;2.27;;;11.40;99.90;;;;;;5005951;28;20487;-72
2022/10/11 07:50:39;;;;;;;3.03;1.50;;;11.40;99.90;;;;;;5014632;28;20456;-72
2022/10/11 07:53:05;;;;;;;4.43;2.00;;;11.50;99.90;;;;;;5010003;28;20452;-73
2022/10/11 07:55:39;;;;;;;7.23;1.70;;;11.50;99.90;;;;;;5007932;28;20499;-73
2022/10/11 07:58:06;;;;;;;4.63;1.87;;;11.50;99.90;;;;;;5025756;28;20241;-73
2022/10/11 08:00:32;;;;;;;5.83;1.77;;;11.50;99.90;;;;;;5026620;28;20475;-73
2022/10/11 08:03:04;;;;;;;3.90;1.57;;;11.50;99.90;;;;;;4994243;28;20463;-73
2022/10/11 08:05:31;;;;;;;2.03;1.40;;;11.50;99.90;;;;;;5001902;28;20463;-73
2022/10/11 08:07:57;;;;;;;4.10;1.80;;;11.50;99.90;;;;;;5002454;28;20451;-73
2022/10/11 08:10:24;;;;;;;1.40;1.30;;;11.60;99.90;;;;;;5017971;28;20464;-73
2022/10/11 08:12:50;;;;;;;2.70;1.50;;;11.60;99.90;;;;;;5012258;28;20539;-73
2022/10/11 08:15:16;;;;;;;2.70;1.33;;;11.70;99.90;;;;;;5021790;28;20459;-73
2022/10/11 08:17:41;;;;;;;5.97;1.80;;;11.70;99.90;;;;;;5003590;28;20459;-72
2022/10/11 08:20:08;;;;;;;2.17;1.10;;;11.70;99.90;;;;;;5007198;28;20248;-73
2022/10/11 08:22:33;;;;;;;2.67;1.60;;;11.70;99.90;;;;;;4996840;28;20222;-73
2022/10/11 08:24:59;;;;;;;5.77;1.70;;;11.80;99.90;;;;;;5023210;28;20454;-71
2022/10/11 08:27:25;;;;;;;8.33;1.97;;;11.80;99.90;;;;;;4996298;28;20292;-74
2022/10/11 08:29:50;;;;;;;5.00;1.70;;;11.80;99.90;;;;;;4999949;28;20228;-73
2022/10/11 08:32:16;;;;;;;3.80;1.30;;;11.90;99.90;;;;;;4999021;28;20249;-72
2022/10/11 08:34:42;;;;;;;4.30;1.60;;;12.00;99.90;;;;;;4999301;28;20228;-73
2022/10/11 08:37:07;;;;;;;4.53;1.43;;;12.00;99.90;;;;;;5020237;28;20222;-72
2022/10/11 08:39:33;;;;;;;2.67;1.33;;;12.20;99.90;;;;;;4995665;28;20247;-73
2022/10/11 08:42:10;;;;;;;2.30;1.43;;;12.20;99.90;;;;;;5011008;28;20236;-73
2022/10/11 08:44:53;;;;;;;4.70;1.90;;;12.30;99.90;;;;;;5008324;28;20252;-74
2022/10/11 08:47:51;;;;;;;5.40;1.13;;;12.30;99.90;;;;;;4997951;28;20864;-73
2022/10/11 08:50:22;;;;;;;6.93;2.73;;;12.40;99.90;;;;;;5012462;28;20479;-72
2022/10/11 08:52:57;;;;;;;4.97;1.97;;;12.50;99.90;;;;;;5009987;28;20483;-73
2022/10/11 08:55:38;;;;;;;3.90;1.20;;;12.60;99.90;;;;;;5013495;28;20550;-73
2022/10/11 08:58:03;;;;;;;1.93;1.00;;;12.60;99.90;;;;;;4996510;28;20521;-72
2022/10/11 09:00:32;;;;;;;2.40;1.00;;;12.50;99.90;;;;;;5001232;28;20476;-71
2022/10/11 09:03:19;;;;;;;1.73;1.10;;;12.60;99.90;;;;;;4990183;28;20240;-74
2022/10/11 09:05:57;;;;;;;5.53;1.40;;;12.60;99.90;;;;;;4981186;28;20476;-73
2022/10/11 09:08:40;;;;;;;3.53;1.67;;;12.80;99.90;;;;;;5015991;28;20469;-72
2022/10/11 09:11:21;;;;;;;4.30;1.70;;;12.80;99.90;;;;;;4986570;28;20463;-72
2022/10/11 09:13:48;;;;;;;2.47;1.37;;;12.80;99.90;;;;;;4998566;28;20460;-72
2022/10/11 09:16:25;;;;;;;3.50;1.40;;;12.90;99.90;;;;;;4981251;28;20461;-71
2022/10/11 09:19:25;;;;;;;3.23;1.73;;;13.00;99.90;;;;;;5016825;28;20488;-72
2022/10/11 09:22:19;;;;;;;6.53;1.43;;;13.10;99.90;;;;;;5009723;28;20502;-71
2022/10/11 09:24:51;;;;;;;3.33;1.13;;;13.10;99.90;;;;;;5017637;28;20459;-72
2022/10/11 09:27:33;;;;;;;4.67;1.30;;;13.10;99.90;;;;;;5007451;28;20462;-71
2022/10/11 09:30:13;;;;;;;8.13;1.60;;;13.10;99.90;;;;;;5011655;28;20597;-70
2022/10/11 09:32:43;;;;;;;2.97;1.40;;;13.30;99.90;;;;;;5009089;28;20486;-72
2022/10/11 09:35:16;;;;;;;7.70;1.73;;;13.40;99.90;;;;;;4986271;28;20449;-70
2022/10/11 09:37:47;;;;;;;3.23;1.33;;;13.40;99.90;;;;;;5011685;28;20451;-71
2022/10/11 09:40:54;;;;;;;4.67;1.23;;;13.40;99.90;;;;;;5007789;28;20491;-72
2022/10/11 09:43:19;;;;;;;6.20;1.13;;;13.40;99.90;;;;;;4998992;28;20452;-71
2022/10/11 09:45:45;;;;;;;3.50;1.20;;;13.50;99.90;;;;;;5009308;28;20475;-73
2022/10/11 09:48:21;;;;;;;1.80;0.80;;;13.50;99.90;;;;;;5001002;28;20228;-69
2022/10/11 09:50:48;;;;;;;6.43;1.43;;;13.60;99.90;;;;;;5021241;28;20245;-70
2022/10/11 09:53:14;;;;;;;6.13;1.27;;;13.70;99.90;;;;;;4995228;28;20463;-71
2022/10/11 09:55:40;;;;;;;1.00;0.80;;;13.60;99.90;;;;;;5004060;28;20456;-72
2022/10/11 09:58:23;;;;;;;4.33;1.40;;;13.60;99.90;;;;;;5017763;28;20217;-71
2022/10/11 10:00:58;;;;;;;4.03;1.33;;;13.70;99.90;;;;;;5000078;28;20212;-71
2022/10/11 10:03:36;;;;;;;4.40;1.27;;;13.80;99.90;;;;;;5014229;28;20449;-72
2022/10/11 10:06:15;;;;;;;4.20;1.47;;;13.80;99.90;;;;;;5021642;28;20455;-72
2022/10/11 10:08:41;;;;;;;3.63;0.97;;;13.90;99.90;;;;;;5017306;28;20521;-72
2022/10/11 10:11:09;;;;;;;8.60;1.70;;;14.00;99.90;;;;;;4997561;28;20449;-72
2022/10/11 10:13:50;;;;;;;3.50;0.90;;;14.10;99.90;;;;;;5005995;28;20455;-71
2022/10/11 10:16:28;;;;;;;3.20;1.00;;;14.30;99.90;;;;;;5012671;28;20455;-72
2022/10/11 10:19:05;;;;;;;3.60;1.10;;;14.40;99.90;;;;;;5013816;28;20862;-71
2022/10/11 10:21:33;;;;;;;8.63;1.90;;;14.20;99.90;;;;;;4985134;28;20487;-72
2022/10/11 10:24:03;;;;;;;6.00;1.37;;;14.10;99.90;;;;;;5004312;28;20460;-72
2022/10/11 10:26:29;;;;;;;5.60;1.30;;;14.10;99.90;;;;;;5006293;28;20448;-72
2022/10/11 10:29:00;;;;;;;4.87;1.17;;;14.20;99.90;;;;;;5008751;28;20529;-72
2022/10/11 10:31:51;;;;;;;10.37;1.67;;;14.20;99.90;;;;;;5013547;28;20984;-71
2022/10/11 10:34:27;;;;;;;2.40;1.00;;;14.30;99.90;;;;;;4985860;28;20452;-72
2022/10/11 10:36:56;;;;;;;2.73;1.20;;;14.30;99.90;;;;;;5004401;28;20933;-71
2022/10/11 10:39:35;;;;;;;6.00;2.00;;;14.30;99.90;;;;;;5015540;28;20990;-71
2022/10/11 10:42:03;;;;;;;3.17;1.03;;;14.40;99.90;;;;;;4989494;28;20476;-70
2022/10/11 10:44:29;;;;;;;2.93;1.40;;;14.50;99.90;;;;;;5007375;28;20470;-71
2022/10/11 10:47:04;;;;;;;6.20;0.83;;;14.50;99.90;;;;;;5005155;28;21126;-72
2022/10/11 10:49:37;;;;;;;5.17;1.00;;;14.60;99.90;;;;;;5014691;28;20462;-70
2022/10/11 10:52:40;;;;;;;3.27;1.40;;;14.60;99.90;;;;;;5004334;28;20466;-71
2022/10/11 10:55:21;;;;;;;3.90;1.20;;;14.60;99.90;;;;;;5010972;28;20910;-72
2022/10/11 10:58:16;;;;;;;3.07;1.23;;;14.70;99.90;;;;;;5009462;28;20463;-72
2022/10/11 11:00:48;;;;;;;4.63;1.77;;;14.80;99.90;;;;;;5014898;28;20494;-71
2022/10/11 11:03:21;;;;;;;7.43;1.77;;;14.90;99.90;;;;;;5008804;28;20455;-71
2022/10/11 11:06:08;;;;;;;3.93;1.70;;;15.00;99.90;;;;;;5021232;28;20452;-72
2022/10/11 11:08:37;;;;;;;3.10;1.10;;;15.10;99.90;;;;;;5002235;28;20486;-72
2022/10/11 11:11:17;;;;;;;1.70;1.40;;;15.00;99.90;;;;;;4999476;28;20457;-72
2022/10/11 11:13:55;;;;;;;3.90;1.30;;;15.00;99.90;;;;;;5008727;28;20542;-72
2022/10/11 11:16:30;;;;;;;2.60;1.07;;;15.00;99.90;;;;;;5000912;28;20459;-71
2022/10/11 11:18:55;;;;;;;3.60;1.30;;;15.00;99.90;;;;;;5011321;28;21013;-70
2022/10/11 11:21:59;;;;;;;3.03;1.10;;;15.00;99.90;;;;;;5016171;28;20479;-72
2022/10/11 11:24:46;;;;;;;3.80;1.07;;;15.10;99.90;;;;;;5016386;28;20646;-72
2022/10/11 11:27:17;;;;;;;4.97;1.37;;;15.10;99.90;;;;;;5025926;28;20959;-70
2022/10/11 11:30:02;;;;;;;4.63;1.40;;;15.10;99.90;;;;;;5016579;28;20820;-71
2022/10/11 11:33:01;;;;;;;5.30;0.97;;;15.10;99.90;;;;;;5008328;28;20464;-71
2022/10/11 11:35:51;;;;;;;2.47;1.30;;;15.00;99.90;;;;;;5009240;28;20485;-71
2022/10/11 11:38:55;;;;;;;3.57;1.20;;;15.10;99.90;;;;;;4992288;28;21005;-70
2022/10/11 11:41:43;;;;;;;2.30;1.17;;;15.20;99.90;;;;;;5018393;28;20468;-71
2022/10/11 11:44:09;;;;;;;1.80;1.13;;;15.20;99.90;;;;;;4999640;28;20481;-71
2022/10/11 11:46:43;;;;;;;5.67;1.37;;;15.20;99.90;;;;;;5010032;28;20558;-71
2022/10/11 11:49:17;;;;;;;2.93;1.00;;;15.20;99.90;;;;;;4995997;28;20248;-71
2022/10/11 11:51:45;;;;;;;6.70;1.20;;;15.30;99.90;;;;;;4985505;28;20444;-70
2022/10/11 11:54:23;;;;;;;2.27;1.47;;;15.30;99.90;;;;;;5000388;28;20462;-71
2022/10/11 11:57:17;;;;;;;4.83;1.77;;;15.30;99.90;;;;;;5004056;28;20514;-71
2022/10/11 12:00:04;;;;;;;6.20;1.30;;;15.30;99.90;;;;;;5016437;28;20463;-70
2022/10/11 12:02:39;;;;;;;5.63;1.20;;;15.40;99.90;;;;;;5011656;28;20456;-72
2022/10/11 12:05:07;;;;;;;4.77;1.37;;;15.50;99.90;;;;;;5014622;28;20464;-72
2022/10/11 12:07:59;;;;;;;3.63;1.73;;;15.50;99.90;;;;;;4999679;28;20460;-71
2022/10/11 12:10:36;;;;;;;5.30;1.23;;;15.60;99.90;;;;;;5010681;28;20460;-71
2022/10/11 12:13:08;;;;;;;4.87;1.10;;;15.60;99.90;;;;;;5016069;28;20848;-71
2022/10/11 12:15:34;;;;;;;2.17;1.20;;;15.80;99.90;;;;;;5010769;28;20460;-71
2022/10/11 12:18:04;;;;;;;3.60;1.53;;;15.90;99.90;;;;;;5013485;28;20453;-70
2022/10/11 12:20:31;;;;;;;8.47;1.60;;;15.90;99.90;;;;;;5003783;28;20479;-70
2022/10/11 12:22:59;;;;;;;2.60;1.13;;;15.90;99.90;;;;;;5019072;28;20460;-72
2022/10/11 12:25:25;;;;;;;0.97;0.97;;;15.90;99.90;;;;;;5015208;28;20458;-70
2022/10/11 12:27:59;;;;;;;2.27;1.20;;;15.90;99.90;;;;;;5009182;28;20826;-72
2022/10/11 12:30:45;;;;;;;1.30;1.00;;;15.90;99.90;;;;;;5016999;28;20307;-72
2022/10/11 12:33:24;;;;;;;2.37;1.30;;;15.90;99.90;;;;;;5011596;28;20492;-71
2022/10/11 12:35:53;;;;;;;4.70;1.13;;;15.90;99.90;;;;;;5014299;28;20533;-71
2022/10/11 12:38:38;;;;;;;3.00;1.30;;;16.00;99.90;;;;;;5010352;28;20460;-71
2022/10/11 12:41:09;;;;;;;3.10;1.43;;;16.00;99.90;;;;;;5014015;28;20502;-71
2022/10/11 12:43:47;;;;;;;1.47;1.37;;;16.00;99.90;;;;;;5012675;28;20982;-71
2022/10/11 12:46:28;;;;;;;2.70;1.10;;;15.90;99.90;;;;;;5008002;28;20879;-71
2022/10/11 12:48:54;;;;;;;2.70;1.07;;;15.80;99.90;;;;;;5011741;28;20466;-71
2022/10/11 12:51:39;;;;;;;6.13;1.40;;;15.90;99.90;;;;;;5008259;28;20445;-71
2022/10/11 12:54:08;;;;;;;5.03;1.47;;;15.90;99.90;;;;;;4995144;28;20224;-71
2022/10/11 12:56:55;;;;;;;6.70;1.20;;;15.90;99.90;;;;;;5009638;28;20451;-72
2022/10/11 12:59:22;;;;;;;3.27;1.00;;;16.00;99.90;;;;;;5006319;28;20538;-69
2022/10/11 13:01:52;;;;;;;2.77;1.27;;;16.00;99.90;;;;;;5011417;28;20452;-70
2022/10/11 13:04:24;;;;;;;2.43;1.23;;;16.10;99.90;;;;;;4992224;28;20475;-71
2022/10/11 13:06:53;;;;;;;1.97;1.13;;;16.00;99.90;;;;;;4995163;28;20448;-71